createdAt,value
2022-10-20T00:00:02.513Z,9.278202
2022-10-20T00:01:02.485Z,9.278204
2022-10-20T00:02:02.475Z,9.277965
2022-10-20T00:03:02.554Z,9.278183
2022-10-20T00:04:02.463Z,9.278353
2022-10-20T00:05:02.429Z,9.278493
2022-10-20T00:06:02.412Z,9.278517
2022-10-20T00:07:02.489Z,9.278400
2022-10-20T00:08:02.471Z,9.278172
2022-10-20T00:09:02.552Z,9.278306
2022-10-20T00:10:02.318Z,9.278258
2022-10-20T00:11:02.324Z,9.278204
2022-10-20T00:12:02.317Z,9.278188
2022-10-20T00:13:02.288Z,9.278284
2022-10-20T00:14:02.297Z,9.278238
2022-10-20T00:15:02.248Z,9.278219
2022-10-20T00:16:02.221Z,9.278117
2022-10-20T00:17:02.214Z,9.278364
2022-10-20T00:18:02.187Z,9.278534
2022-10-20T00:19:02.208Z,9.278426
2022-10-20T00:20:02.212Z,9.278284
2022-10-20T00:21:02.146Z,9.278197
2022-10-20T00:22:02.153Z,9.278178
2022-10-20T00:23:02.102Z,9.278313
2022-10-20T00:24:02.141Z,9.278344
2022-10-20T00:25:02.064Z,9.278320
2022-10-20T00:26:02.071Z,9.278366
2022-10-20T00:27:02.045Z,9.278177
2022-10-20T00:28:02.052Z,9.278130
2022-10-20T00:29:02.037Z,9.278324
2022-10-20T00:30:01.995Z,9.278298
2022-10-20T00:31:01.963Z,9.278368
2022-10-20T00:32:01.955Z,9.278292
2022-10-20T00:33:01.933Z,9.278351
2022-10-20T00:34:01.950Z,9.278327
2022-10-20T00:35:01.910Z,9.278272
2022-10-20T00:36:01.884Z,9.278240
2022-10-20T00:37:01.881Z,9.278307
2022-10-20T00:38:01.840Z,9.278391
2022-10-20T00:39:01.866Z,9.278332
2022-10-20T00:40:01.813Z,9.278197
2022-10-20T00:41:01.790Z,9.278229
2022-10-20T00:42:01.858Z,9.278136
2022-10-20T00:43:01.796Z,9.278165
2022-10-20T00:44:01.778Z,9.278230
2022-10-20T00:45:01.754Z,9.278241
2022-10-20T00:46:01.717Z,9.278258
2022-10-20T00:47:01.756Z,9.278232
2022-10-20T00:48:01.676Z,9.278164
2022-10-20T00:49:01.724Z,9.278174
2022-10-20T00:50:01.639Z,9.278133
2022-10-20T00:51:01.679Z,9.278192
2022-10-20T00:52:01.613Z,9.278264
2022-10-20T00:53:01.598Z,9.278204
2022-10-20T00:54:01.602Z,9.278258
2022-10-20T00:55:01.567Z,9.278204
2022-10-20T00:56:01.566Z,9.278202
2022-10-20T00:58:01.538Z,9.278238
2022-10-20T00:59:01.525Z,9.278295
2022-10-20T01:00:01.482Z,9.278371
2022-10-20T01:01:01.450Z,9.278275
2022-10-20T01:02:01.521Z,9.278247
2022-10-20T01:03:01.424Z,9.278203
2022-10-20T01:04:01.428Z,9.278277
2022-10-20T01:05:01.395Z,9.278291
2022-10-20T01:06:01.368Z,9.278350
2022-10-20T01:07:01.369Z,9.278128
2022-10-20T01:08:01.387Z,9.278224
2022-10-20T01:09:01.409Z,9.278125
2022-10-20T01:10:01.293Z,9.278250
2022-10-20T01:11:01.296Z,9.278133
2022-10-20T01:12:01.261Z,9.278217
2022-10-20T01:13:01.257Z,9.278219
2022-10-20T01:14:01.280Z,9.278228
2022-10-20T01:15:01.227Z,9.278226
2022-10-20T01:16:01.207Z,9.278288
2022-10-20T01:17:01.190Z,9.278185
2022-10-20T01:18:01.167Z,9.278275
2022-10-20T01:19:01.194Z,9.278256
2022-10-20T01:20:01.125Z,9.278267
2022-10-20T01:21:01.120Z,9.278289
2022-10-20T01:22:01.093Z,9.278253
2022-10-20T01:23:01.100Z,9.278295
2022-10-20T01:24:01.080Z,9.278263
2022-10-20T01:25:01.055Z,9.278248
2022-10-20T01:26:01.059Z,9.278314
2022-10-20T01:27:01.004Z,9.278306
2022-10-20T01:28:00.998Z,9.278300
2022-10-20T01:29:01.008Z,9.278245
2022-10-20T01:30:00.965Z,9.278358
2022-10-20T01:31:00.943Z,9.278311
2022-10-20T01:32:00.935Z,9.278432
2022-10-20T01:33:00.912Z,9.278349
2022-10-20T01:34:00.944Z,9.278294
2022-10-20T01:35:00.869Z,9.278214
2022-10-20T01:36:00.873Z,9.278153
2022-10-20T01:37:00.840Z,9.278260
2022-10-20T01:38:00.815Z,9.278260
2022-10-20T01:39:00.835Z,9.278281
2022-10-20T01:40:00.803Z,9.278303
2022-10-20T01:41:00.767Z,9.278308
2022-10-20T01:42:00.760Z,9.278302
2022-10-20T01:43:00.747Z,9.278268
2022-10-20T01:44:00.756Z,9.278285
2022-10-20T01:45:00.710Z,9.278276
2022-10-20T01:46:00.685Z,9.278252
2022-10-20T01:47:00.677Z,9.278276
2022-10-20T01:48:00.640Z,9.278278
2022-10-20T01:49:00.656Z,9.278291
2022-10-20T01:50:00.619Z,9.278281
2022-10-20T01:51:00.615Z,9.278260
2022-10-20T01:52:00.580Z,9.278241
2022-10-20T01:53:00.562Z,9.278211
2022-10-20T01:54:00.585Z,9.278185
2022-10-20T01:55:00.528Z,9.278164
2022-10-20T01:56:00.523Z,9.278167
2022-10-20T01:57:00.496Z,9.278173
2022-10-20T01:58:00.474Z,9.278272
2022-10-20T01:59:00.503Z,9.278252
2022-10-20T02:00:00.460Z,9.278220
2022-10-20T02:01:00.441Z,9.278227
2022-10-20T02:02:00.432Z,9.278255
2022-10-20T02:03:00.425Z,9.278263
2022-10-20T02:04:00.411Z,9.278333
2022-10-20T02:05:00.374Z,9.278304
2022-10-20T02:06:00.353Z,9.278329
2022-10-20T02:07:00.328Z,9.278327
2022-10-20T02:08:00.306Z,9.278311
2022-10-20T02:09:00.334Z,9.278345
2022-10-20T02:10:00.299Z,9.278342
2022-10-20T02:11:00.258Z,9.278372
2022-10-20T02:12:00.244Z,9.278392
2022-10-20T02:13:00.217Z,9.278442
2022-10-20T02:14:00.244Z,9.278288
2022-10-20T02:15:00.203Z,9.278308
2022-10-20T02:16:00.197Z,9.278356
2022-10-20T02:17:00.172Z,9.278314
2022-10-20T02:18:00.165Z,9.278223
2022-10-20T02:19:00.311Z,9.278381
2022-10-20T02:20:00.142Z,9.278348
2022-10-20T02:21:00.091Z,9.278332
2022-10-20T02:22:00.088Z,9.278401
2022-10-20T02:23:00.056Z,9.278577
2022-10-20T02:24:00.068Z,9.278354
2022-10-20T02:25:00.023Z,9.278417
2022-10-20T02:25:59.999Z,9.278469
2022-10-20T02:26:59.981Z,9.278473
2022-10-20T02:29:00.980Z,9.278246
2022-10-20T02:29:59.924Z,9.278222
2022-10-20T02:30:59.908Z,9.278095
2022-10-20T02:31:59.891Z,9.278062
2022-10-20T02:32:59.873Z,9.278185
2022-10-20T02:33:59.888Z,9.278165
2022-10-20T02:35:03.583Z,9.278183
2022-10-20T02:36:01.834Z,9.278150
2022-10-20T02:36:59.806Z,9.278250
2022-10-20T02:37:59.800Z,9.278191
2022-10-20T02:38:59.821Z,9.278331
2022-10-20T02:39:59.758Z,9.278265
2022-10-20T02:40:59.740Z,9.278259
2022-10-20T02:41:59.726Z,9.278134
2022-10-20T02:42:59.735Z,9.278131
2022-10-20T02:43:59.743Z,9.278172
2022-10-20T02:44:59.672Z,9.277739
2022-10-20T02:45:59.660Z,9.277744
2022-10-20T02:46:59.652Z,9.277901
2022-10-20T02:47:59.625Z,9.278299
2022-10-20T02:48:59.645Z,9.278198
2022-10-20T02:49:59.596Z,9.278318
2022-10-20T02:50:59.593Z,9.278229
2022-10-20T02:51:59.562Z,9.278333
2022-10-20T02:53:00.537Z,9.278428
2022-10-20T02:53:59.560Z,9.278309
2022-10-20T02:54:59.509Z,9.278352
2022-10-20T02:55:59.503Z,9.278456
2022-10-20T02:56:59.495Z,9.278421
2022-10-20T02:57:59.480Z,9.278380
2022-10-20T02:58:59.472Z,9.278392
2022-10-20T02:59:59.449Z,9.278338
2022-10-20T03:00:59.418Z,9.278332
2022-10-20T03:01:59.455Z,9.278375
2022-10-20T03:02:59.379Z,9.278210
2022-10-20T03:03:59.402Z,9.278310
2022-10-20T03:04:59.335Z,9.278363
2022-10-20T03:05:59.362Z,9.278418
2022-10-20T03:06:59.330Z,9.278478
2022-10-20T03:07:59.284Z,9.278480
2022-10-20T03:08:59.354Z,9.278370
2022-10-20T03:09:59.263Z,9.278397
2022-10-20T03:10:59.257Z,9.278361
2022-10-20T03:11:59.210Z,9.278400
2022-10-20T03:12:59.219Z,9.278482
2022-10-20T03:13:59.226Z,9.278409
2022-10-20T03:14:59.190Z,9.278481
2022-10-20T03:15:59.252Z,9.278491
2022-10-20T03:16:59.147Z,9.278418
2022-10-20T03:17:59.115Z,9.278425
2022-10-20T03:19:03.336Z,9.278394
2022-10-20T03:20:00.088Z,9.278400
2022-10-20T03:20:59.066Z,9.278445
2022-10-20T03:21:59.082Z,9.278467
2022-10-20T03:22:59.032Z,9.278519
2022-10-20T03:23:59.042Z,9.278510
2022-10-20T03:24:59.009Z,9.278519
2022-10-20T03:25:59.005Z,9.278434
2022-10-20T03:26:58.992Z,9.278379
2022-10-20T03:27:58.970Z,9.278396
2022-10-20T03:28:59.970Z,9.278400
2022-10-20T03:29:58.958Z,9.278433
2022-10-20T03:30:58.902Z,9.278429
2022-10-20T03:31:58.952Z,9.278415
2022-10-20T03:32:58.903Z,9.278337
2022-10-20T03:33:58.905Z,9.278337
2022-10-20T03:34:58.862Z,9.278279
2022-10-20T03:35:58.836Z,9.278305
2022-10-20T03:36:58.811Z,9.278403
2022-10-20T03:37:58.808Z,9.278574
2022-10-20T03:38:58.849Z,9.278495
2022-10-20T03:39:58.810Z,9.278385
2022-10-20T03:40:58.845Z,9.278460
2022-10-20T03:41:58.747Z,9.278351
2022-10-20T03:42:58.727Z,9.278426
2022-10-20T03:43:58.768Z,9.278561
2022-10-20T03:44:58.721Z,9.278538
2022-10-20T03:45:58.707Z,9.278383
2022-10-20T03:46:58.650Z,9.278338
2022-10-20T03:47:58.699Z,9.278372
2022-10-20T03:48:58.656Z,9.278289
2022-10-20T03:49:58.665Z,9.278163
2022-10-20T03:50:58.638Z,9.278292
2022-10-20T03:51:58.580Z,9.278234
2022-10-20T03:52:58.545Z,9.278228
2022-10-20T03:53:58.556Z,9.278336
2022-10-20T03:54:58.547Z,9.278201
2022-10-20T03:55:58.494Z,9.278229
2022-10-20T03:56:58.487Z,9.278326
2022-10-20T03:57:58.495Z,9.278354
2022-10-20T03:58:59.544Z,9.278600
2022-10-20T03:59:58.439Z,9.278525
2022-10-20T04:00:58.453Z,9.278518
2022-10-20T04:01:58.565Z,9.278335
2022-10-20T04:02:58.365Z,9.278360
2022-10-20T04:03:58.393Z,9.278497
2022-10-20T04:04:58.361Z,9.278339
2022-10-20T04:05:58.350Z,9.278386
2022-10-20T04:06:58.344Z,9.278507
2022-10-20T04:07:58.356Z,9.278571
2022-10-20T04:08:58.340Z,9.278773
2022-10-20T04:09:58.292Z,9.278849
2022-10-20T04:10:58.254Z,9.278380
2022-10-20T04:11:58.205Z,9.278345
2022-10-20T04:12:58.207Z,9.278273
2022-10-20T04:13:58.240Z,9.278268
2022-10-20T04:14:58.184Z,9.278435
2022-10-20T04:15:58.176Z,9.278546
2022-10-20T04:16:58.236Z,9.278627
2022-10-20T04:17:58.142Z,9.278541
2022-10-20T04:18:58.141Z,9.278627
2022-10-20T04:19:58.087Z,9.278371
2022-10-20T04:20:58.062Z,9.278417
2022-10-20T04:21:58.038Z,9.278186
2022-10-20T04:22:58.033Z,9.278138
2022-10-20T04:23:58.042Z,9.278169
2022-10-20T04:24:58.028Z,9.278330
2022-10-20T04:25:58.001Z,9.278255
2022-10-20T04:26:58.018Z,9.278311
2022-10-20T04:27:57.960Z,9.278296
2022-10-20T04:28:57.996Z,9.278423
2022-10-20T04:29:57.918Z,9.278323
2022-10-20T04:30:57.913Z,9.278395
2022-10-20T04:31:57.907Z,9.278382
2022-10-20T04:32:57.889Z,9.278214
2022-10-20T04:33:57.877Z,9.278261
2022-10-20T04:34:57.834Z,9.278214
2022-10-20T04:35:57.830Z,9.278244
2022-10-20T04:36:57.798Z,9.278199
2022-10-20T04:37:57.797Z,9.278195
2022-10-20T04:38:57.793Z,9.278332
2022-10-20T04:39:57.754Z,9.278439
2022-10-20T04:41:00.312Z,9.278349
2022-10-20T04:41:58.715Z,9.278202
2022-10-20T04:42:57.694Z,9.278232
2022-10-20T04:43:57.711Z,9.278487
2022-10-20T04:45:57.651Z,9.278219
2022-10-20T04:46:57.626Z,9.278223
2022-10-20T04:47:57.626Z,9.278229
2022-10-20T04:48:57.636Z,9.278262
2022-10-20T04:49:57.568Z,9.278256
2022-10-20T04:50:57.603Z,9.278248
2022-10-20T04:52:01.040Z,9.278225
2022-10-20T04:52:58.504Z,9.278229
2022-10-20T04:53:57.606Z,9.278192
2022-10-20T04:54:57.483Z,9.278259
2022-10-20T04:55:57.543Z,9.278339
2022-10-20T04:56:57.446Z,9.278316
2022-10-20T04:57:57.454Z,9.278398
2022-10-20T04:58:57.461Z,9.278449
2022-10-20T04:59:58.419Z,9.278512
2022-10-20T05:00:57.370Z,9.278555
2022-10-20T05:01:57.444Z,9.278448
2022-10-20T05:02:57.412Z,9.278539
2022-10-20T05:03:57.416Z,9.278380
2022-10-20T05:04:57.336Z,9.278322
2022-10-20T05:05:57.315Z,9.278293
2022-10-20T05:06:57.298Z,9.278234
2022-10-20T05:07:57.279Z,9.278218
2022-10-20T05:08:57.317Z,9.278220
2022-10-20T05:09:57.233Z,9.278299
2022-10-20T05:10:57.230Z,9.278272
2022-10-20T05:11:57.218Z,9.278220
2022-10-20T05:12:57.210Z,9.278143
2022-10-20T05:13:57.201Z,9.278087
2022-10-20T05:14:57.161Z,9.278154
2022-10-20T05:15:57.142Z,9.278196
2022-10-20T05:16:57.116Z,9.278261
2022-10-20T05:17:57.092Z,9.278318
2022-10-20T05:18:57.112Z,9.278230
2022-10-20T05:19:57.049Z,9.278291
2022-10-20T05:21:08.377Z,9.278206
2022-10-20T05:21:59.041Z,9.278391
2022-10-20T05:22:56.998Z,9.278290
2022-10-20T05:23:57.018Z,9.278238
2022-10-20T05:25:04.053Z,9.278300
2022-10-20T05:25:58.973Z,9.278284
2022-10-20T05:26:56.963Z,9.278254
2022-10-20T05:27:57.934Z,9.278263
2022-10-20T05:28:57.009Z,9.278275
2022-10-20T05:29:56.992Z,9.278279
2022-10-20T05:30:59.232Z,9.278314
2022-10-20T05:31:56.852Z,9.278275
2022-10-20T05:32:56.856Z,9.278330
2022-10-20T05:33:56.847Z,9.278305
2022-10-20T05:34:56.817Z,9.278282
2022-10-20T05:35:56.789Z,9.278297
2022-10-20T05:36:56.869Z,9.278316
2022-10-20T05:37:56.747Z,9.278297
2022-10-20T05:38:56.827Z,9.278286
2022-10-20T05:39:56.714Z,9.278230
2022-10-20T05:40:56.688Z,9.278139
2022-10-20T05:41:56.682Z,9.278197
2022-10-20T05:42:56.672Z,9.278260
2022-10-20T05:43:56.695Z,9.278266
2022-10-20T05:44:56.641Z,9.278179
2022-10-20T05:45:56.617Z,9.278280
2022-10-20T05:46:56.595Z,9.278335
2022-10-20T05:47:56.579Z,9.278263
2022-10-20T05:48:56.615Z,9.278300
2022-10-20T05:49:56.532Z,9.278316
2022-10-20T05:50:56.555Z,9.278311
2022-10-20T05:51:56.530Z,9.278328
2022-10-20T05:52:56.484Z,9.278281
2022-10-20T05:53:56.514Z,9.278339
2022-10-20T05:54:56.498Z,9.278332
2022-10-20T05:55:57.479Z,9.278344
2022-10-20T05:56:56.431Z,9.278367
2022-10-20T05:57:56.424Z,9.278298
2022-10-20T05:58:56.442Z,9.278321
2022-10-20T05:59:56.402Z,9.278415
2022-10-20T06:00:56.481Z,9.278393
2022-10-20T06:01:56.340Z,9.278339
2022-10-20T06:02:56.322Z,9.278337
2022-10-20T06:03:56.366Z,9.278229
2022-10-20T06:04:56.289Z,9.278298
2022-10-20T06:05:56.316Z,9.278297
2022-10-20T06:06:56.340Z,9.278336
2022-10-20T06:07:56.315Z,9.278255
2022-10-20T06:08:56.358Z,9.278143
2022-10-20T06:09:56.223Z,9.278156
2022-10-20T06:10:56.202Z,9.278210
2022-10-20T06:11:56.211Z,9.278213
2022-10-20T06:12:56.166Z,9.278226
2022-10-20T06:13:56.171Z,9.278304
2022-10-20T06:14:56.125Z,9.278359
2022-10-20T06:15:56.093Z,9.278223
2022-10-20T06:16:56.102Z,9.278120
2022-10-20T06:17:56.095Z,9.278256
2022-10-20T06:18:56.115Z,9.277998
2022-10-20T06:19:56.160Z,9.278190
2022-10-20T06:20:56.033Z,9.278398
2022-10-20T06:21:56.026Z,9.278279
2022-10-20T06:22:56.000Z,9.278166
2022-10-20T06:23:56.159Z,9.278296
2022-10-20T06:24:56.022Z,9.278317
2022-10-20T06:25:55.939Z,9.278387
2022-10-20T06:26:55.930Z,9.278314
2022-10-20T06:27:55.902Z,9.278296
2022-10-20T06:28:59.806Z,9.278296
2022-10-20T06:29:58.496Z,9.278277
2022-10-20T06:30:55.890Z,9.278316
2022-10-20T06:31:55.855Z,9.278310
2022-10-20T06:32:55.825Z,9.278341
2022-10-20T06:33:55.842Z,9.278300
2022-10-20T06:34:55.751Z,9.278039
2022-10-20T06:35:55.754Z,9.278142
2022-10-20T06:36:55.778Z,9.278299
2022-10-20T06:37:55.714Z,9.278527
2022-10-20T06:38:55.719Z,9.278402
2022-10-20T06:39:55.682Z,9.278282
2022-10-20T06:40:55.645Z,9.278345
2022-10-20T06:41:55.627Z,9.278355
2022-10-20T06:43:55.651Z,9.278422
2022-10-20T06:44:55.612Z,9.278378
2022-10-20T06:45:55.578Z,9.278385
2022-10-20T06:46:55.604Z,9.278323
2022-10-20T06:47:55.530Z,9.278389
2022-10-20T06:48:58.596Z,9.278403
2022-10-20T06:49:56.520Z,9.278420
2022-10-20T06:50:55.497Z,9.278356
2022-10-20T06:51:55.603Z,9.278319
2022-10-20T06:52:55.464Z,9.278154
2022-10-20T06:53:55.486Z,9.278245
2022-10-20T06:54:55.469Z,9.278152
2022-10-20T06:55:55.460Z,9.278203
2022-10-20T06:56:55.391Z,9.278278
2022-10-20T06:57:56.389Z,9.278302
2022-10-20T06:58:55.380Z,9.278306
2022-10-20T06:59:55.320Z,9.278281
2022-10-20T07:00:55.305Z,9.278279
2022-10-20T07:01:55.386Z,9.278306
2022-10-20T07:02:55.288Z,9.278291
2022-10-20T07:03:55.291Z,9.278232
2022-10-20T07:04:55.322Z,9.278193
2022-10-20T07:05:55.242Z,9.278180
2022-10-20T07:06:55.204Z,9.278165
2022-10-20T07:07:55.220Z,9.278384
2022-10-20T07:08:55.250Z,9.278195
2022-10-20T07:09:55.166Z,9.278195
2022-10-20T07:10:55.141Z,9.278261
2022-10-20T07:11:55.108Z,9.278303
2022-10-20T07:12:55.156Z,9.278286
2022-10-20T07:13:55.177Z,9.278279
2022-10-20T07:14:55.083Z,9.278407
2022-10-20T07:15:55.072Z,9.278306
2022-10-20T07:16:55.046Z,9.278347
2022-10-20T07:17:56.032Z,9.278373
2022-10-20T07:18:55.033Z,9.278310
2022-10-20T07:19:55.037Z,9.278293
2022-10-20T07:20:55.004Z,9.278353
2022-10-20T07:21:55.006Z,9.278366
2022-10-20T07:22:54.944Z,9.278307
2022-10-20T07:23:54.962Z,9.278319
2022-10-20T07:24:54.993Z,9.278337
2022-10-20T07:25:54.939Z,9.278296
2022-10-20T07:26:54.944Z,9.278246
2022-10-20T07:27:54.895Z,9.278312
2022-10-20T07:28:56.185Z,9.278236
2022-10-20T07:29:55.849Z,9.278272
2022-10-20T07:30:54.833Z,9.278176
2022-10-20T07:31:55.997Z,9.278272
2022-10-20T07:32:54.795Z,9.278293
2022-10-20T07:34:13.163Z,9.278277
2022-10-20T07:34:56.750Z,9.278234
2022-10-20T07:35:54.750Z,9.278215
2022-10-20T07:36:54.722Z,9.278214
2022-10-20T07:37:54.708Z,9.278211
2022-10-20T07:38:54.716Z,9.278215
2022-10-20T07:39:54.677Z,9.278243
2022-10-20T07:40:55.722Z,9.278378
2022-10-20T07:41:54.636Z,9.278313
2022-10-20T07:42:54.621Z,9.278300
2022-10-20T07:43:54.652Z,9.278299
2022-10-20T07:44:54.577Z,9.278335
2022-10-20T07:45:54.561Z,9.278288
2022-10-20T07:46:54.533Z,9.278269
2022-10-20T07:47:54.544Z,9.278333
2022-10-20T07:48:54.527Z,9.278300
2022-10-20T07:49:54.494Z,9.278337
2022-10-20T07:50:54.450Z,9.278278
2022-10-20T07:51:54.460Z,9.278270
2022-10-20T07:52:54.501Z,9.278340
2022-10-20T07:53:58.155Z,9.278273
2022-10-20T07:55:06.259Z,9.278244
2022-10-20T07:55:56.358Z,9.278362
2022-10-20T07:56:54.402Z,9.278251
2022-10-20T07:57:54.368Z,9.278153
2022-10-20T07:58:54.378Z,9.278203
2022-10-20T07:59:54.311Z,9.278314
2022-10-20T08:00:54.292Z,9.278371
2022-10-20T08:01:56.207Z,9.278338
2022-10-20T08:02:55.280Z,9.278174
2022-10-20T08:03:54.244Z,9.278354
2022-10-20T08:04:54.278Z,9.278361
2022-10-20T08:05:54.219Z,9.278448
2022-10-20T08:06:54.225Z,9.278348
2022-10-20T08:07:54.167Z,9.278369
2022-10-20T08:08:54.217Z,9.278397
2022-10-20T08:09:54.181Z,9.278287
2022-10-20T08:10:54.125Z,9.278305
2022-10-20T08:11:55.618Z,9.278233
2022-10-20T08:12:55.127Z,9.278359
2022-10-20T08:13:54.138Z,9.278378
2022-10-20T08:14:55.033Z,9.278255
2022-10-20T08:15:54.274Z,9.278283
2022-10-20T08:16:58.572Z,9.278180
2022-10-20T08:17:55.002Z,9.278159
2022-10-20T08:19:59.969Z,9.278277
2022-10-20T08:20:53.972Z,9.278272
2022-10-20T08:21:53.934Z,9.278271
2022-10-20T08:22:53.947Z,9.278306
2022-10-20T08:23:53.955Z,9.278346
2022-10-20T08:24:53.955Z,9.278230
2022-10-20T08:25:53.926Z,9.278231
2022-10-20T08:26:53.924Z,9.278260
2022-10-20T08:27:53.955Z,9.278255
2022-10-20T08:28:53.838Z,9.278261
2022-10-20T08:30:00.264Z,9.278303
2022-10-20T08:30:55.809Z,9.278160
2022-10-20T08:31:53.833Z,9.278262
2022-10-20T08:32:53.777Z,9.278305
2022-10-20T08:33:53.747Z,9.278372
2022-10-20T08:34:53.815Z,9.278251
2022-10-20T08:35:53.748Z,9.278239
2022-10-20T08:36:53.702Z,9.278150
2022-10-20T08:37:53.753Z,9.278166
2022-10-20T08:38:53.701Z,9.278277
2022-10-20T08:39:54.512Z,9.278361
2022-10-20T08:40:53.636Z,9.278391
2022-10-20T08:42:08.104Z,9.278316
2022-10-20T08:42:55.591Z,9.278095
2022-10-20T08:43:53.583Z,9.278008
2022-10-20T08:44:53.602Z,9.278208
2022-10-20T08:45:53.575Z,9.278341
2022-10-20T08:46:55.443Z,9.278390
2022-10-20T08:47:56.416Z,9.278290
2022-10-20T08:48:53.958Z,9.278166
2022-10-20T08:49:53.513Z,9.278029
2022-10-20T08:50:53.475Z,9.278162
2022-10-20T08:51:53.445Z,9.278190
2022-10-20T08:52:53.486Z,9.278248
2022-10-20T08:53:53.433Z,9.278245
2022-10-20T08:54:53.425Z,9.278350
2022-10-20T08:55:53.377Z,9.278513
2022-10-20T08:56:53.361Z,9.278254
2022-10-20T08:57:53.338Z,9.278252
2022-10-20T08:58:53.364Z,9.278282
2022-10-20T08:59:53.351Z,9.278267
2022-10-20T09:00:53.282Z,9.278262
2022-10-20T09:01:53.332Z,9.278287
2022-10-20T09:02:53.273Z,9.278252
2022-10-20T09:03:53.254Z,9.278390
2022-10-20T09:04:53.273Z,9.278286
2022-10-20T09:05:53.203Z,9.278294
2022-10-20T09:06:53.180Z,9.278255
2022-10-20T09:07:54.178Z,9.278363
2022-10-20T09:08:53.256Z,9.278359
2022-10-20T09:09:53.189Z,9.278179
2022-10-20T09:10:53.114Z,9.278351
2022-10-20T09:11:53.102Z,9.278491
2022-10-20T09:12:53.129Z,9.278309
2022-10-20T09:13:53.114Z,9.278454
2022-10-20T09:14:53.061Z,9.278457
2022-10-20T09:15:53.051Z,9.278261
2022-10-20T09:17:00.290Z,9.278404
2022-10-20T09:17:55.042Z,9.278316
2022-10-20T09:18:53.012Z,9.278290
2022-10-20T09:19:53.050Z,9.278351
2022-10-20T09:20:53.001Z,9.278220
2022-10-20T09:21:52.914Z,9.278230
2022-10-20T09:22:53.031Z,9.278289
2022-10-20T09:23:52.911Z,9.278316
2022-10-20T09:24:52.948Z,9.278411
2022-10-20T09:25:52.847Z,9.278315
2022-10-20T09:27:33.370Z,9.278339
2022-10-20T09:27:52.808Z,9.278396
2022-10-20T09:29:12.013Z,9.278422
2022-10-20T09:29:54.794Z,9.278317
2022-10-20T09:30:52.741Z,9.278352
2022-10-20T09:31:52.723Z,9.278320
2022-10-20T09:32:52.718Z,9.278303
2022-10-20T09:33:52.695Z,9.278296
2022-10-20T09:34:52.724Z,9.278261
2022-10-20T09:35:52.657Z,9.278247
2022-10-20T09:36:52.647Z,9.278275
2022-10-20T09:37:52.745Z,9.278360
2022-10-20T09:38:52.625Z,9.278307
2022-10-20T09:39:55.393Z,9.278294
2022-10-20T09:40:53.594Z,9.278285
2022-10-20T09:41:52.654Z,9.278247
2022-10-20T09:42:52.598Z,9.278364
2022-10-20T09:43:54.459Z,9.278296
2022-10-20T09:44:52.554Z,9.278282
2022-10-20T09:45:52.499Z,9.278257
2022-10-20T09:46:52.493Z,9.278339
2022-10-20T09:47:52.694Z,9.278292
2022-10-20T09:48:52.484Z,9.278335
2022-10-20T09:49:54.239Z,9.278358
2022-10-20T09:50:52.415Z,9.278380
2022-10-20T09:52:52.390Z,9.278262
2022-10-20T09:53:52.364Z,9.278221
2022-10-20T09:54:52.365Z,9.278098
2022-10-20T09:55:52.334Z,9.278221
2022-10-20T09:56:52.311Z,9.278322
2022-10-20T09:57:52.290Z,9.278227
2022-10-20T09:58:52.274Z,9.278292
2022-10-20T09:59:53.306Z,9.278317
2022-10-20T10:00:52.285Z,9.278489
2022-10-20T10:01:52.221Z,9.278384
2022-10-20T10:02:52.212Z,9.278395
2022-10-20T10:03:52.188Z,9.278365
2022-10-20T10:04:52.204Z,9.278343
2022-10-20T10:05:52.168Z,9.278388
2022-10-20T10:06:52.146Z,9.278325
2022-10-20T10:07:52.121Z,9.278311
2022-10-20T10:08:52.176Z,9.278319
2022-10-20T10:09:52.118Z,9.278391
2022-10-20T10:10:52.064Z,9.278321
2022-10-20T10:11:52.055Z,9.278299
2022-10-20T10:12:52.150Z,9.278336
2022-10-20T10:13:52.047Z,9.278343
2022-10-20T10:14:52.034Z,9.278292
2022-10-20T10:15:51.982Z,9.278411
2022-10-20T10:16:51.974Z,9.278325
2022-10-20T10:17:51.954Z,9.278269
2022-10-20T10:18:51.926Z,9.278202
2022-10-20T10:19:55.410Z,9.278239
2022-10-20T10:20:51.913Z,9.278323
2022-10-20T10:21:51.885Z,9.278297
2022-10-20T10:22:51.879Z,9.278293
2022-10-20T10:23:51.851Z,9.278310
2022-10-20T10:24:51.931Z,9.278406
2022-10-20T10:25:51.830Z,9.278321
2022-10-20T10:26:51.806Z,9.278350
2022-10-20T10:27:51.781Z,9.278344
2022-10-20T10:28:51.763Z,9.278297
2022-10-20T10:29:51.782Z,9.278296
2022-10-20T10:30:51.722Z,9.278402
2022-10-20T10:31:52.716Z,9.278383
2022-10-20T10:32:51.704Z,9.278464
2022-10-20T10:33:51.698Z,9.278447
2022-10-20T10:34:51.764Z,9.278282
2022-10-20T10:35:51.661Z,9.278154
2022-10-20T10:36:51.634Z,9.278314
2022-10-20T10:37:51.624Z,9.278369
2022-10-20T10:38:51.593Z,9.278380
2022-10-20T10:39:51.610Z,9.278393
2022-10-20T10:40:51.589Z,9.278319
2022-10-20T10:41:51.598Z,9.278210
2022-10-20T10:42:51.528Z,9.278472
2022-10-20T10:43:51.513Z,9.278234
2022-10-20T10:44:51.519Z,9.278209
2022-10-20T10:45:51.495Z,9.278111
2022-10-20T10:46:51.936Z,9.278056
2022-10-20T10:47:51.483Z,9.278183
2022-10-20T10:48:51.443Z,9.278228
2022-10-20T10:49:51.455Z,9.278288
2022-10-20T10:50:51.503Z,9.278347
2022-10-20T10:51:51.374Z,9.278234
2022-10-20T10:52:51.369Z,9.278296
2022-10-20T10:53:51.349Z,9.278163
2022-10-20T10:54:51.382Z,9.278274
2022-10-20T10:55:51.334Z,9.278343
2022-10-20T10:56:51.309Z,9.278371
2022-10-20T10:57:51.288Z,9.278328
2022-10-20T10:58:51.270Z,9.278315
2022-10-20T10:59:51.285Z,9.278327
2022-10-20T11:00:51.258Z,9.278328
2022-10-20T11:01:51.222Z,9.278405
2022-10-20T11:02:51.194Z,9.278440
2022-10-20T11:03:51.201Z,9.278364
2022-10-20T11:04:51.216Z,9.278270
2022-10-20T11:05:52.149Z,9.278265
2022-10-20T11:06:54.242Z,9.278388
2022-10-20T11:07:53.118Z,9.278345
2022-10-20T11:08:51.185Z,9.278249
2022-10-20T11:09:51.090Z,9.278189
2022-10-20T11:10:51.079Z,9.278227
2022-10-20T11:11:51.044Z,9.278112
2022-10-20T11:12:51.039Z,9.277877
2022-10-20T11:13:51.052Z,9.278036
2022-10-20T11:14:51.009Z,9.278282
2022-10-20T11:15:50.985Z,9.278215
2022-10-20T11:16:50.972Z,9.278198
2022-10-20T11:17:50.949Z,9.278234
2022-10-20T11:18:50.982Z,9.278264
2022-10-20T11:19:50.935Z,9.278377
2022-10-20T11:20:50.901Z,9.278255
2022-10-20T11:21:50.904Z,9.278335
2022-10-20T11:22:50.866Z,9.278378
2022-10-20T11:23:50.923Z,9.278190
2022-10-20T11:24:50.843Z,9.278252
2022-10-20T11:25:50.833Z,9.278314
2022-10-20T11:26:50.819Z,9.278206
2022-10-20T11:27:50.792Z,9.278092
2022-10-20T11:28:50.782Z,9.278177
2022-10-20T11:29:50.803Z,9.278262
2022-10-20T11:30:50.820Z,9.278355
2022-10-20T11:31:50.723Z,9.278328
2022-10-20T11:32:50.720Z,9.278338
2022-10-20T11:33:50.687Z,9.278345
2022-10-20T11:34:50.701Z,9.278219
2022-10-20T11:35:50.643Z,9.278126
2022-10-20T11:36:51.660Z,9.278120
2022-10-20T11:37:50.634Z,9.278234
2022-10-20T11:38:50.624Z,9.278183
2022-10-20T11:39:50.622Z,9.278187
2022-10-20T11:40:50.578Z,9.278227
2022-10-20T11:41:50.576Z,9.278365
2022-10-20T11:42:50.561Z,9.278378
2022-10-20T11:43:50.533Z,9.278358
2022-10-20T11:44:50.546Z,9.278372
2022-10-20T11:45:50.504Z,9.278306
2022-10-20T11:46:50.482Z,9.278260
2022-10-20T11:47:50.464Z,9.278219
2022-10-20T11:48:50.444Z,9.278237
2022-10-20T11:49:50.451Z,9.278316